createdAt,value
2022-09-12T00:01:28.415Z,96.55
2022-09-12T00:03:58.132Z,96.47
2022-09-12T00:06:30.184Z,96.80
2022-09-12T00:08:59.478Z,95.43
2022-09-12T00:11:26.729Z,95.69
2022-09-12T00:13:57.369Z,95.40
2022-09-12T00:16:25.853Z,96.65
2022-09-12T00:18:53.265Z,97.74
2022-09-12T00:21:21.494Z,97.83
2022-09-12T00:23:48.765Z,98.28
2022-09-12T00:26:15.599Z,97.34
2022-09-12T00:28:42.424Z,96.41
2022-09-12T00:31:12.477Z,96.13
2022-09-12T00:33:39.740Z,95.54
2022-09-12T00:36:09.281Z,95.81
2022-09-12T00:38:38.549Z,96.33
2022-09-12T00:41:06.256Z,96.33
2022-09-12T00:43:42.173Z,95.59
2022-09-12T00:46:36.333Z,95.68
2022-09-12T00:49:02.685Z,96.51
2022-09-12T00:51:32.116Z,97.12
2022-09-12T00:54:00.712Z,97.16
2022-09-12T00:56:27.947Z,98.46
2022-09-12T00:59:05.210Z,99.04
2022-09-12T01:01:32.800Z,99.41
2022-09-12T01:03:59.882Z,100.00
2022-09-12T01:06:30.341Z,100.00
2022-09-12T01:08:57.605Z,100.00
2022-09-12T01:11:23.973Z,100.00
2022-09-12T01:13:50.801Z,100.00
2022-09-12T01:16:17.743Z,100.00
2022-09-12T01:19:20.182Z,100.00
2022-09-12T01:22:14.238Z,100.00
2022-09-12T01:25:18.252Z,99.93
2022-09-12T01:28:25.202Z,100.00
2022-09-12T01:31:20.315Z,100.00
2022-09-12T01:34:01.982Z,100.00
2022-09-12T01:36:36.189Z,100.00
2022-09-12T01:39:05.770Z,100.00
2022-09-12T01:41:53.867Z,100.00
2022-09-12T01:44:40.303Z,100.00
2022-09-12T01:47:17.066Z,100.00
2022-09-12T01:50:02.333Z,100.00
2022-09-12T01:52:58.052Z,100.00
2022-09-12T01:55:33.693Z,100.00
2022-09-12T01:58:06.326Z,100.00
2022-09-12T02:00:37.732Z,100.00
2022-09-12T02:03:26.874Z,100.00
2022-09-12T02:05:59.820Z,100.00
2022-09-12T02:08:31.540Z,100.00
2022-09-12T02:11:03.484Z,100.00
2022-09-12T02:13:39.215Z,99.67
2022-09-12T02:16:23.942Z,100.00
2022-09-12T02:18:54.994Z,100.00
2022-09-12T02:21:24.562Z,100.00
2022-09-12T02:23:56.759Z,100.00
2022-09-12T02:26:36.728Z,100.00
2022-09-12T02:29:04.697Z,100.00
2022-09-12T02:31:42.702Z,100.00
2022-09-12T02:34:24.211Z,100.00
2022-09-12T02:37:09.430Z,99.83
2022-09-12T02:39:36.248Z,99.49
2022-09-12T02:42:03.831Z,99.54
2022-09-12T02:44:31.493Z,100.00
2022-09-12T02:47:10.810Z,100.00
2022-09-12T02:49:37.447Z,100.00
2022-09-12T02:52:04.074Z,100.00
2022-09-12T02:54:31.141Z,99.54
2022-09-12T02:56:57.841Z,100.00
2022-09-12T02:59:25.436Z,100.00
2022-09-12T03:02:20.144Z,99.17
2022-09-12T03:04:48.799Z,99.45
2022-09-12T03:07:43.286Z,99.27
2022-09-12T03:10:44.535Z,99.08
2022-09-12T03:13:33.051Z,100.00
2022-09-12T03:16:16.085Z,100.00
2022-09-12T03:19:11.965Z,100.00
2022-09-12T03:21:53.417Z,100.00
2022-09-12T03:24:38.048Z,100.00
2022-09-12T03:27:14.836Z,100.00
2022-09-12T03:29:43.277Z,100.00
2022-09-12T03:32:10.079Z,100.00
2022-09-12T03:34:36.530Z,100.00
2022-09-12T03:37:03.422Z,100.00
2022-09-12T03:39:29.883Z,100.00
2022-09-12T03:41:56.401Z,100.00
2022-09-12T03:44:23.644Z,100.00
2022-09-12T03:46:50.664Z,100.00
2022-09-12T03:49:17.601Z,100.00
2022-09-12T03:51:44.224Z,100.00
2022-09-12T03:54:11.046Z,99.89
2022-09-12T03:56:37.741Z,100.00
2022-09-12T03:59:07.372Z,100.00
2022-09-12T04:01:34.335Z,100.00
2022-09-12T04:04:00.928Z,100.00
2022-09-12T04:06:27.422Z,100.00
2022-09-12T04:08:55.193Z,100.00
2022-09-12T04:11:22.913Z,100.00
2022-09-12T04:13:51.004Z,100.00
2022-09-12T04:16:18.616Z,100.00
2022-09-12T04:18:45.793Z,100.00
2022-09-12T04:21:15.913Z,100.00
2022-09-12T04:23:43.125Z,100.00
2022-09-12T04:26:10.102Z,100.00
2022-09-12T04:28:38.343Z,100.00
2022-09-12T04:31:07.897Z,100.00
2022-09-12T04:33:35.838Z,100.00
2022-09-12T04:36:07.718Z,100.00
2022-09-12T04:38:35.807Z,100.00
2022-09-12T04:41:20.742Z,100.00
2022-09-12T04:43:48.380Z,100.00
2022-09-12T04:46:19.752Z,100.00
2022-09-12T04:48:47.537Z,100.00
2022-09-12T04:51:22.711Z,100.00
2022-09-12T04:53:52.242Z,100.00
2022-09-12T04:56:19.731Z,100.00
2022-09-12T04:58:46.831Z,100.00
2022-09-12T05:01:16.310Z,100.00
2022-09-12T05:03:44.350Z,100.00
2022-09-12T05:06:14.483Z,100.00
2022-09-12T05:08:41.680Z,100.00
2022-09-12T05:11:11.543Z,100.00
2022-09-12T05:13:38.910Z,100.00
2022-09-12T05:16:06.487Z,100.00
2022-09-12T05:18:34.695Z,100.00
2022-09-12T05:21:02.733Z,100.00
2022-09-12T05:23:29.703Z,100.00
2022-09-12T05:25:57.934Z,100.00
2022-09-12T05:28:28.295Z,100.00
2022-09-12T05:31:02.249Z,100.00
2022-09-12T05:33:29.524Z,100.00
2022-09-12T05:35:56.009Z,100.00
2022-09-12T05:38:25.000Z,100.00
2022-09-12T05:40:52.155Z,100.00
2022-09-12T05:43:20.294Z,100.00
2022-09-12T05:45:46.726Z,100.00
2022-09-12T05:48:13.546Z,100.00
2022-09-12T05:50:39.965Z,100.00
2022-09-12T05:53:06.424Z,100.00
2022-09-12T05:55:33.179Z,100.00
2022-09-12T05:57:59.592Z,100.00
2022-09-12T06:00:27.592Z,100.00
2022-09-12T06:02:56.875Z,100.00
2022-09-12T06:05:23.277Z,100.00
2022-09-12T06:07:49.710Z,100.00
2022-09-12T06:10:16.161Z,100.00
2022-09-12T06:12:43.699Z,100.00
2022-09-12T06:15:10.586Z,100.00
2022-09-12T06:17:37.011Z,100.00
2022-09-12T06:20:04.081Z,100.00
2022-09-12T06:22:31.630Z,100.00
2022-09-12T06:24:58.232Z,100.00
2022-09-12T06:27:24.683Z,100.00
2022-09-12T06:29:51.168Z,100.00
2022-09-12T06:32:17.566Z,100.00
2022-09-12T06:34:44.099Z,99.62
2022-09-12T06:37:10.728Z,100.00
2022-09-12T06:39:38.382Z,99.95
2022-09-12T06:42:05.030Z,99.53
2022-09-12T06:44:31.641Z,99.13
2022-09-12T06:46:58.751Z,98.29
2022-09-12T06:49:25.210Z,98.74
2022-09-12T06:51:51.649Z,98.97
2022-09-12T06:54:18.156Z,99.39
2022-09-12T06:56:44.856Z,98.77
2022-09-12T06:59:11.395Z,98.94
2022-09-12T07:01:38.212Z,97.98
2022-09-12T07:04:05.039Z,99.38
2022-09-12T07:06:36.904Z,97.40
2022-09-12T07:09:06.109Z,96.20
2022-09-12T07:11:35.054Z,97.10
2022-09-12T07:14:03.671Z,96.11
2022-09-12T07:16:30.599Z,95.92
2022-09-12T07:18:59.463Z,96.15
2022-09-12T07:21:27.479Z,96.14
2022-09-12T07:24:02.962Z,95.50
2022-09-12T07:26:30.479Z,94.34
2022-09-12T07:29:18.747Z,95.21
2022-09-12T07:31:45.081Z,92.86
2022-09-12T07:34:11.620Z,92.51
2022-09-12T07:36:39.179Z,92.73
2022-09-12T07:39:05.959Z,92.76
2022-09-12T07:41:35.697Z,92.39
2022-09-12T07:44:03.357Z,92.81
2022-09-12T07:46:31.455Z,92.82
2022-09-12T07:49:00.069Z,91.95
2022-09-12T07:51:28.863Z,90.81
2022-09-12T07:53:56.309Z,93.06
2022-09-12T07:56:27.331Z,92.59
2022-09-12T07:58:56.834Z,91.16
2022-09-12T08:01:23.567Z,89.93
2022-09-12T08:03:54.914Z,90.62
2022-09-12T08:06:25.652Z,90.12
2022-09-12T08:08:54.874Z,89.94
2022-09-12T08:11:22.521Z,89.58
2022-09-12T08:13:54.829Z,88.23
2022-09-12T08:16:23.871Z,89.06
2022-09-12T08:18:50.499Z,87.79
2022-09-12T08:21:22.153Z,88.70
2022-09-12T08:23:53.990Z,87.91
2022-09-12T08:26:20.503Z,87.19
2022-09-12T08:28:47.375Z,86.60
2022-09-12T08:31:16.703Z,86.74
2022-09-12T08:33:43.420Z,85.82
2022-09-12T08:36:15.781Z,84.42
2022-09-12T08:38:44.618Z,84.60
2022-09-12T08:41:35.253Z,83.49
2022-09-12T08:44:04.443Z,83.28
2022-09-12T08:46:49.935Z,80.38
2022-09-12T08:49:54.264Z,78.18
2022-09-12T08:52:37.384Z,76.52
2022-09-12T08:55:06.638Z,73.54
2022-09-12T08:57:33.506Z,70.42
2022-09-12T09:00:04.411Z,67.82
2022-09-12T09:02:43.743Z,65.74
2022-09-12T09:05:16.215Z,66.32
2022-09-12T09:08:06.301Z,63.25
2022-09-12T09:10:39.792Z,64.23
2022-09-12T09:13:56.393Z,62.27
2022-09-12T09:16:48.149Z,58.45
2022-09-12T09:19:23.831Z,58.90
2022-09-12T09:22:11.954Z,59.75
2022-09-12T09:24:55.324Z,59.75
2022-09-12T09:27:40.846Z,60.20
2022-09-12T09:30:17.304Z,60.59
2022-09-12T09:32:47.571Z,60.09
2022-09-12T09:35:25.710Z,59.79
2022-09-12T09:38:04.687Z,60.37
2022-09-12T09:41:03.591Z,61.08
2022-09-12T09:43:30.295Z,61.08
2022-09-12T09:45:59.296Z,61.70
2022-09-12T09:48:31.845Z,61.63
2022-09-12T09:51:03.819Z,62.11
2022-09-12T09:53:52.992Z,60.73
2022-09-12T09:56:28.244Z,60.76
2022-09-12T09:58:55.108Z,62.46
2022-09-12T10:01:21.656Z,61.46
2022-09-12T10:03:53.803Z,63.62
2022-09-12T10:06:20.727Z,60.20
2022-09-12T10:08:48.825Z,59.11
2022-09-12T10:11:15.149Z,60.13
2022-09-12T10:14:04.507Z,57.96
2022-09-12T10:16:48.775Z,57.73
2022-09-12T10:19:24.632Z,57.20
2022-09-12T10:21:54.538Z,57.69
2022-09-12T10:24:28.772Z,55.59
2022-09-12T10:27:05.817Z,55.84
2022-09-12T10:29:36.526Z,55.07
2022-09-12T10:32:08.665Z,55.29
2022-09-12T10:34:40.828Z,56.59
2022-09-12T10:37:10.880Z,55.08
2022-09-12T10:39:38.855Z,52.47
2022-09-12T10:42:05.761Z,53.29
2022-09-12T10:44:34.556Z,53.72
2022-09-12T10:47:20.593Z,53.30
2022-09-12T10:49:46.989Z,52.61
2022-09-12T10:52:21.627Z,53.56
2022-09-12T10:54:47.998Z,53.09
2022-09-12T10:57:31.414Z,51.86
2022-09-12T11:00:18.152Z,52.16
2022-09-12T11:02:52.240Z,53.25
2022-09-12T11:06:01.596Z,51.19
2022-09-12T11:08:44.758Z,51.32
2022-09-12T11:11:13.859Z,47.90
2022-09-12T11:13:52.437Z,48.84
2022-09-12T11:16:57.021Z,48.38
2022-09-12T11:19:48.223Z,48.92
2022-09-12T11:22:32.043Z,48.65
2022-09-12T11:25:20.138Z,49.15
2022-09-12T11:27:56.791Z,50.38
2022-09-12T11:30:23.284Z,50.05
2022-09-12T11:32:57.086Z,51.11
2022-09-12T11:35:32.436Z,51.25
2022-09-12T11:38:08.868Z,49.74
2022-09-12T11:40:50.419Z,48.62
2022-09-12T11:43:39.632Z,49.54
2022-09-12T11:46:23.825Z,48.97
2022-09-12T11:49:00.919Z,46.93
2022-09-12T11:51:46.030Z,47.72
2022-09-12T11:54:34.632Z,47.51
2022-09-12T11:57:12.568Z,48.61
2022-09-12T11:59:52.720Z,48.17
2022-09-12T12:02:31.214Z,49.26
2022-09-12T12:05:16.492Z,48.28
2022-09-12T12:07:52.444Z,46.85
2022-09-12T12:10:26.632Z,47.93
2022-09-12T12:12:54.003Z,46.88
2022-09-12T12:15:22.484Z,48.76
2022-09-12T12:18:04.629Z,48.70
2022-09-12T12:20:31.192Z,47.30
2022-09-12T12:22:57.742Z,48.25
2022-09-12T12:25:38.578Z,48.39
2022-09-12T12:28:06.514Z,48.23
2022-09-12T12:30:33.554Z,47.53
2022-09-12T12:33:00.934Z,48.56
2022-09-12T12:35:46.230Z,48.29
2022-09-12T12:38:40.393Z,48.37
2022-09-12T12:41:18.792Z,47.57
2022-09-12T12:43:53.574Z,47.10
2022-09-12T12:46:25.254Z,46.89
2022-09-12T12:48:57.335Z,47.04
2022-09-12T12:51:31.021Z,47.75
2022-09-12T12:54:00.388Z,47.59
2022-09-12T12:56:38.981Z,48.11
2022-09-12T12:59:16.248Z,47.06
2022-09-12T13:01:54.238Z,48.38
2022-09-12T13:04:24.968Z,48.71
2022-09-12T13:07:07.645Z,48.30
2022-09-12T13:09:45.635Z,47.68
2022-09-12T13:12:21.301Z,47.16
2022-09-12T13:14:56.677Z,47.23
2022-09-12T13:17:31.754Z,48.17
2022-09-12T13:20:27.989Z,47.52
2022-09-12T13:22:55.356Z,48.71
2022-09-12T13:25:27.256Z,47.27
2022-09-12T13:28:18.470Z,46.90
2022-09-12T13:30:59.910Z,48.11
2022-09-12T13:33:26.643Z,47.68
2022-09-12T13:35:58.784Z,46.52
2022-09-12T13:38:43.089Z,46.50
2022-09-12T13:41:41.581Z,47.56
2022-09-12T13:44:15.038Z,47.75
2022-09-12T13:46:41.761Z,46.33
2022-09-12T13:49:33.696Z,46.50
2022-09-12T13:52:04.805Z,46.25
2022-09-12T13:54:33.715Z,47.04
2022-09-12T13:57:00.549Z,44.99
2022-09-12T13:59:27.032Z,47.39
2022-09-12T14:01:53.596Z,46.74
2022-09-12T14:04:42.373Z,47.33
2022-09-12T14:07:20.231Z,47.89
2022-09-12T14:09:54.917Z,53.88
2022-09-12T14:12:43.814Z,50.18
2022-09-12T14:15:24.523Z,51.40
2022-09-12T14:17:54.726Z,50.35
2022-09-12T14:20:23.528Z,50.32
2022-09-12T14:22:53.657Z,52.48
2022-09-12T14:25:25.755Z,51.29
2022-09-12T14:27:54.771Z,51.35
2022-09-12T14:30:32.504Z,50.14
2022-09-12T14:33:17.882Z,55.29
2022-09-12T14:35:50.749Z,52.00
2022-09-12T14:38:17.701Z,50.69
2022-09-12T14:41:09.103Z,53.16
2022-09-12T14:43:47.240Z,52.23
2022-09-12T14:46:34.253Z,52.62
2022-09-12T14:49:18.760Z,52.56
2022-09-12T14:52:21.883Z,50.06
2022-09-12T14:55:02.796Z,51.58
2022-09-12T14:57:39.272Z,51.27
2022-09-12T15:00:17.815Z,51.24
2022-09-12T15:02:44.805Z,51.49
2022-09-12T15:05:11.195Z,51.21
2022-09-12T15:07:59.504Z,52.69
2022-09-12T15:10:35.142Z,52.06
2022-09-12T15:13:04.664Z,52.33
2022-09-12T15:15:31.715Z,51.42
2022-09-12T15:17:59.933Z,51.38
2022-09-12T15:20:28.887Z,51.88
2022-09-12T15:22:55.419Z,51.97
2022-09-12T15:25:21.823Z,50.83
2022-09-12T15:27:52.001Z,50.82
2022-09-12T15:30:18.597Z,50.98
2022-09-12T15:32:45.609Z,53.18
2022-09-12T15:35:23.678Z,51.18
2022-09-12T15:37:50.735Z,51.03
2022-09-12T15:40:17.906Z,51.86
2022-09-12T15:42:44.510Z,51.14
2022-09-12T15:45:23.717Z,50.87
2022-09-12T15:47:50.119Z,51.53
2022-09-12T15:50:16.732Z,51.04
2022-09-12T15:52:43.232Z,51.61
2022-09-12T15:55:18.272Z,51.21
2022-09-12T15:57:45.743Z,50.80
2022-09-12T16:00:14.223Z,50.38
2022-09-12T16:02:40.694Z,51.21
2022-09-12T16:05:13.985Z,52.17
2022-09-12T16:07:40.432Z,51.99
2022-09-12T16:10:08.625Z,51.50
2022-09-12T16:12:35.089Z,51.87
2022-09-12T16:15:02.285Z,51.95
2022-09-12T16:17:28.658Z,52.50
2022-09-12T16:19:55.047Z,51.93
2022-09-12T16:22:21.512Z,52.20
2022-09-12T16:24:47.912Z,52.26
2022-09-12T16:27:14.657Z,52.63
2022-09-12T16:29:41.353Z,52.87
2022-09-12T16:32:07.775Z,52.73
2022-09-12T16:34:34.263Z,53.25
2022-09-12T16:37:01.793Z,53.46
2022-09-12T16:39:28.215Z,53.66
2022-09-12T16:41:54.635Z,53.21
2022-09-12T16:44:21.076Z,53.99
2022-09-12T16:46:47.559Z,54.83
2022-09-12T16:49:14.098Z,54.72
2022-09-12T16:51:43.850Z,55.10
2022-09-12T16:54:10.699Z,55.11
2022-09-12T16:56:37.191Z,57.61
2022-09-12T16:59:05.226Z,59.43
2022-09-12T17:01:31.653Z,60.78
2022-09-12T17:03:58.743Z,61.03
2022-09-12T17:06:26.631Z,61.74
2022-09-12T17:08:54.924Z,61.78
2022-09-12T17:11:24.638Z,63.52
2022-09-12T17:14:04.337Z,63.26
2022-09-12T17:16:34.234Z,63.88
2022-09-12T17:19:00.952Z,66.12
2022-09-12T17:21:27.500Z,66.51
2022-09-12T17:23:54.261Z,66.42
2022-09-12T17:26:21.017Z,66.61
2022-09-12T17:28:48.165Z,67.15
2022-09-12T17:31:15.111Z,68.16
2022-09-12T17:33:42.066Z,68.78
2022-09-12T17:36:15.386Z,68.87
2022-09-12T17:38:43.606Z,69.54
2022-09-12T17:41:17.266Z,69.96
2022-09-12T17:43:48.972Z,69.81
2022-09-12T17:46:15.752Z,70.32
2022-09-12T17:48:42.456Z,71.31
2022-09-12T17:51:11.287Z,71.43
2022-09-12T17:53:38.219Z,72.53
2022-09-12T17:56:06.157Z,72.13
2022-09-12T17:58:33.895Z,72.63
2022-09-12T18:01:20.479Z,73.23
2022-09-12T18:03:47.088Z,73.64
2022-09-12T18:06:14.951Z,73.14
2022-09-12T18:08:41.575Z,74.22
2022-09-12T18:11:08.252Z,73.46
2022-09-12T18:13:34.986Z,74.74
2022-09-12T18:16:10.295Z,75.46
2022-09-12T18:18:37.080Z,75.26
2022-09-12T18:21:05.542Z,74.75
2022-09-12T18:23:32.640Z,75.08
2022-09-12T18:26:08.595Z,74.50
2022-09-12T18:28:37.195Z,75.34
2022-09-12T18:31:04.981Z,74.20
2022-09-12T18:33:32.128Z,73.90
2022-09-12T18:36:04.004Z,73.94
2022-09-12T18:38:31.121Z,74.43
2022-09-12T18:41:08.607Z,75.33
2022-09-12T18:43:35.140Z,76.21
2022-09-12T18:46:06.518Z,76.29
2022-09-12T18:48:33.777Z,76.56
2022-09-12T18:51:11.248Z,76.10
2022-09-12T18:53:38.881Z,75.54
2022-09-12T18:56:10.247Z,75.71
2022-09-12T18:58:42.585Z,76.88
2022-09-12T19:01:17.753Z,77.14
2022-09-12T19:03:45.479Z,77.98
2022-09-12T19:06:18.469Z,77.56
2022-09-12T19:08:45.641Z,77.15
2022-09-12T19:11:13.133Z,78.39
2022-09-12T19:13:42.074Z,77.28
2022-09-12T19:16:10.742Z,77.40
2022-09-12T19:18:38.518Z,78.64
2022-09-12T19:21:06.179Z,78.16
2022-09-12T19:23:34.140Z,78.89
2022-09-12T19:26:08.469Z,78.54
2022-09-12T19:28:35.404Z,78.98
2022-09-12T19:31:16.863Z,79.71
2022-09-12T19:33:44.626Z,78.57
2022-09-12T19:36:34.039Z,78.43
2022-09-12T19:39:00.631Z,79.37
2022-09-12T19:41:27.164Z,78.91
2022-09-12T19:43:57.054Z,78.30
2022-09-12T19:46:25.648Z,78.90
2022-09-12T19:48:54.993Z,78.73
2022-09-12T19:51:22.400Z,78.90
2022-09-12T19:53:50.241Z,79.22
2022-09-12T19:56:16.969Z,78.96
2022-09-12T19:58:45.802Z,78.87
2022-09-12T20:01:15.136Z,78.68
2022-09-12T20:03:42.246Z,78.96
2022-09-12T20:06:14.865Z,78.47
2022-09-12T20:08:54.133Z,78.72
2022-09-12T20:11:23.545Z,79.09
2022-09-12T20:13:50.230Z,78.48
2022-09-12T20:16:22.141Z,79.64
2022-09-12T20:18:59.974Z,79.64
2022-09-12T20:21:32.187Z,79.38
2022-09-12T20:24:04.946Z,78.47
2022-09-12T20:26:32.084Z,79.10
2022-09-12T20:28:58.895Z,78.66
2022-09-12T20:31:25.727Z,78.81
2022-09-12T20:33:52.301Z,79.10
2022-09-12T20:36:20.258Z,78.41
2022-09-12T20:38:49.448Z,78.17
2022-09-12T20:41:16.536Z,78.23
2022-09-12T20:43:42.917Z,78.66
2022-09-12T20:46:11.053Z,78.02
2022-09-12T20:48:38.560Z,79.19
2022-09-12T20:51:05.684Z,79.03
2022-09-12T20:53:34.972Z,79.39
2022-09-12T20:56:03.096Z,78.62
2022-09-12T20:58:29.567Z,77.88
2022-09-12T21:00:56.072Z,78.69
2022-09-12T21:03:22.717Z,78.98
2022-09-12T21:05:50.142Z,79.53
2022-09-12T21:08:16.614Z,78.98
2022-09-12T21:10:44.359Z,79.19
2022-09-12T21:13:12.028Z,80.31
2022-09-12T21:15:40.078Z,79.30
2022-09-12T21:18:07.171Z,78.96
2022-09-12T21:20:34.236Z,78.33
2022-09-12T21:23:00.684Z,78.40
2022-09-12T21:25:28.881Z,79.14
2022-09-12T21:27:55.204Z,78.94
2022-09-12T21:30:22.238Z,78.09
2022-09-12T21:32:48.739Z,78.74
2022-09-12T21:35:15.221Z,78.43
2022-09-12T21:37:41.620Z,78.79
2022-09-12T21:40:08.407Z,77.95
2022-09-12T21:42:34.832Z,77.67
2022-09-12T21:45:01.213Z,77.76
2022-09-12T21:47:27.589Z,78.42
2022-09-12T21:49:55.218Z,79.19
2022-09-12T21:52:21.998Z,77.89
2022-09-12T21:54:48.377Z,78.13
2022-09-12T21:57:14.770Z,77.82
2022-09-12T21:59:41.425Z,78.19
2022-09-12T22:02:08.610Z,78.51
2022-09-12T22:04:35.022Z,78.27
2022-09-12T22:07:02.097Z,78.55
2022-09-12T22:09:28.494Z,77.89
2022-09-12T22:11:55.481Z,78.56
2022-09-12T22:14:21.891Z,78.73
2022-09-12T22:16:48.447Z,78.05
2022-09-12T22:19:15.071Z,78.59
2022-09-12T22:22:01.406Z,78.14
2022-09-12T22:24:27.894Z,78.47
2022-09-12T22:26:54.970Z,79.23
2022-09-12T22:29:22.102Z,78.76
2022-09-12T22:31:48.586Z,79.31
2022-09-12T22:34:15.501Z,79.15
2022-09-12T22:36:42.127Z,78.42
2022-09-12T22:39:08.720Z,79.56
2022-09-12T22:41:35.144Z,79.11
2022-09-12T22:44:01.694Z,79.79
2022-09-12T22:46:28.645Z,80.38
2022-09-12T22:48:55.820Z,80.32
2022-09-12T22:51:22.328Z,80.53
2022-09-12T22:53:48.962Z,80.11
2022-09-12T22:56:15.871Z,79.43
2022-09-12T22:58:43.478Z,79.48
2022-09-12T23:01:10.565Z,79.42
2022-09-12T23:03:37.365Z,79.65
2022-09-12T23:06:04.684Z,79.72
2022-09-12T23:08:31.077Z,79.07
2022-09-12T23:11:02.394Z,79.13
2022-09-12T23:13:28.955Z,79.65
2022-09-12T23:16:00.108Z,79.87
2022-09-12T23:18:27.344Z,79.96
2022-09-12T23:21:01.585Z,79.83
2022-09-12T23:23:28.622Z,79.59
2022-09-12T23:26:07.078Z,79.65
2022-09-12T23:28:34.777Z,79.32
2022-09-12T23:31:01.637Z,79.42
2022-09-12T23:33:28.768Z,79.62
2022-09-12T23:36:00.130Z,79.91
2022-09-12T23:38:26.617Z,79.41
2022-09-12T23:40:53.143Z,79.74
2022-09-12T23:43:19.786Z,80.47
2022-09-12T23:45:46.310Z,80.58
2022-09-12T23:48:12.759Z,80.43
2022-09-12T23:50:39.370Z,80.44
2022-09-12T23:53:06.444Z,80.95
2022-09-12T23:55:32.901Z,80.65
2022-09-12T23:57:59.279Z,80.51
